sensor_id;sensor_type;location;lat;lon;timestamp;temperature;humidity
4548;DHT22;2286;51.570;7.090;2023-06-04T00:01:04;13.30;22.00
4548;DHT22;2286;51.570;7.090;2023-06-04T00:03:31;13.30;22.90
4548;DHT22;2286;51.570;7.090;2023-06-04T00:05:58;13.20;23.40
4548;DHT22;2286;51.570;7.090;2023-06-04T00:08:25;13.20;23.90
4548;DHT22;2286;51.570;7.090;2023-06-04T00:10:53;13.20;24.90
4548;DHT22;2286;51.570;7.090;2023-06-04T00:13:20;13.10;27.00
4548;DHT22;2286;51.570;7.090;2023-06-04T00:15:46;13.10;28.70
4548;DHT22;2286;51.570;7.090;2023-06-04T00:18:13;13.10;31.70
4548;DHT22;2286;51.570;7.090;2023-06-04T00:20:40;13.00;36.40
4548;DHT22;2286;51.570;7.090;2023-06-04T00:23:07;13.00;45.50
4548;DHT22;2286;51.570;7.090;2023-06-04T00:25:33;13.00;53.10
4548;DHT22;2286;51.570;7.090;2023-06-04T00:28:03;13.00;58.90
4548;DHT22;2286;51.570;7.090;2023-06-04T00:30:29;13.00;70.40
4548;DHT22;2286;51.570;7.090;2023-06-04T00:32:56;13.00;85.30
4548;DHT22;2286;51.570;7.090;2023-06-04T00:35:23;12.90;96.70
4548;DHT22;2286;51.570;7.090;2023-06-04T00:37:50;12.80;99.90
4548;DHT22;2286;51.570;7.090;2023-06-04T00:40:17;12.70;99.90
4548;DHT22;2286;51.570;7.090;2023-06-04T00:42:44;12.80;99.90
4548;DHT22;2286;51.570;7.090;2023-06-04T00:45:12;12.80;99.90
4548;DHT22;2286;51.570;7.090;2023-06-04T00:47:41;12.70;99.90
4548;DHT22;2286;51.570;7.090;2023-06-04T00:50:09;12.70;99.90
4548;DHT22;2286;51.570;7.090;2023-06-04T00:52:36;12.60;99.90
4548;DHT22;2286;51.570;7.090;2023-06-04T00:55:03;12.50;99.90
4548;DHT22;2286;51.570;7.090;2023-06-04T00:57:30;12.50;99.90
4548;DHT22;2286;51.570;7.090;2023-06-04T00:59:57;12.50;99.90
4548;DHT22;2286;51.570;7.090;2023-06-04T01:02:26;12.50;99.90
4548;DHT22;2286;51.570;7.090;2023-06-04T01:04:58;12.40;99.90
4548;DHT22;2286;51.570;7.090;2023-06-04T01:07:27;12.30;99.90
4548;DHT22;2286;51.570;7.090;2023-06-04T01:09:54;12.30;99.90
4548;DHT22;2286;51.570;7.090;2023-06-04T01:12:22;12.30;99.90
4548;DHT22;2286;51.570;7.090;2023-06-04T01:14:49;12.20;99.90
4548;DHT22;2286;51.570;7.090;2023-06-04T01:17:21;12.10;99.90
4548;DHT22;2286;51.570;7.090;2023-06-04T01:20:12;12.10;99.90
4548;DHT22;2286;51.570;7.090;2023-06-04T01:22:44;12.00;99.90
4548;DHT22;2286;51.570;7.090;2023-06-04T01:25:19;11.90;99.90
4548;DHT22;2286;51.570;7.090;2023-06-04T01:27:49;11.90;99.90
4548;DHT22;2286;51.570;7.090;2023-06-04T01:30:18;11.90;99.90
4548;DHT22;2286;51.570;7.090;2023-06-04T01:32:46;11.80;99.90
4548;DHT22;2286;51.570;7.090;2023-06-04T01:35:15;11.80;1.00
4548;DHT22;2286;51.570;7.090;2023-06-04T01:37:41;11.80;1.00
4548;DHT22;2286;51.570;7.090;2023-06-04T01:40:08;11.70;1.00
4548;DHT22;2286;51.570;7.090;2023-06-04T01:42:36;11.70;1.00
4548;DHT22;2286;51.570;7.090;2023-06-04T01:45:03;11.60;1.00
4548;DHT22;2286;51.570;7.090;2023-06-04T01:47:30;11.50;1.00
4548;DHT22;2286;51.570;7.090;2023-06-04T01:49:57;11.40;1.00
4548;DHT22;2286;51.570;7.090;2023-06-04T01:52:25;11.40;1.00
4548;DHT22;2286;51.570;7.090;2023-06-04T01:54:52;11.30;1.00
4548;DHT22;2286;51.570;7.090;2023-06-04T01:57:19;11.20;1.00
4548;DHT22;2286;51.570;7.090;2023-06-04T01:59:46;11.30;1.00
4548;DHT22;2286;51.570;7.090;2023-06-04T02:02:14;11.20;1.00
4548;DHT22;2286;51.570;7.090;2023-06-04T02:04:41;11.10;1.00
4548;DHT22;2286;51.570;7.090;2023-06-04T02:07:08;11.10;1.00
4548;DHT22;2286;51.570;7.090;2023-06-04T02:09:37;11.00;1.00
4548;DHT22;2286;51.570;7.090;2023-06-04T02:12:09;10.90;1.00
4548;DHT22;2286;51.570;7.090;2023-06-04T02:14:36;10.80;1.00
4548;DHT22;2286;51.570;7.090;2023-06-04T02:17:04;10.80;1.00
4548;DHT22;2286;51.570;7.090;2023-06-04T02:19:31;10.80;1.00
4548;DHT22;2286;51.570;7.090;2023-06-04T02:21:59;10.80;1.00
4548;DHT22;2286;51.570;7.090;2023-06-04T02:24:26;10.80;1.00
4548;DHT22;2286;51.570;7.090;2023-06-04T02:26:54;10.70;1.00
4548;DHT22;2286;51.570;7.090;2023-06-04T02:29:21;10.70;1.00
4548;DHT22;2286;51.570;7.090;2023-06-04T02:31:48;10.70;1.00
4548;DHT22;2286;51.570;7.090;2023-06-04T02:34:15;10.70;1.00
4548;DHT22;2286;51.570;7.090;2023-06-04T02:36:43;10.60;1.00
4548;DHT22;2286;51.570;7.090;2023-06-04T02:39:13;10.60;1.00
4548;DHT22;2286;51.570;7.090;2023-06-04T02:41:40;10.50;3.30
4548;DHT22;2286;51.570;7.090;2023-06-04T02:44:09;10.50;5.00
4548;DHT22;2286;51.570;7.090;2023-06-04T02:46:36;10.50;1.00
4548;DHT22;2286;51.570;7.090;2023-06-04T02:49:04;10.50;26.90
4548;DHT22;2286;51.570;7.090;2023-06-04T02:51:31;10.40;34.90
4548;DHT22;2286;51.570;7.090;2023-06-04T02:53:58;10.50;46.10
4548;DHT22;2286;51.570;7.090;2023-06-04T02:56:25;10.40;46.80
4548;DHT22;2286;51.570;7.090;2023-06-04T02:58:53;10.40;57.50
4548;DHT22;2286;51.570;7.090;2023-06-04T03:01:23;10.40;39.70
4548;DHT22;2286;51.570;7.090;2023-06-04T03:03:51;10.40;20.70
4548;DHT22;2286;51.570;7.090;2023-06-04T03:06:19;10.30;99.90
4548;DHT22;2286;51.570;7.090;2023-06-04T03:08:47;10.20;99.90
4548;DHT22;2286;51.570;7.090;2023-06-04T03:11:14;10.30;99.90
4548;DHT22;2286;51.570;7.090;2023-06-04T03:13:41;10.20;99.90
4548;DHT22;2286;51.570;7.090;2023-06-04T03:16:08;10.20;99.90
4548;DHT22;2286;51.570;7.090;2023-06-04T03:18:37;10.20;99.90
4548;DHT22;2286;51.570;7.090;2023-06-04T03:21:05;10.10;99.90
4548;DHT22;2286;51.570;7.090;2023-06-04T03:23:32;10.10;99.90
4548;DHT22;2286;51.570;7.090;2023-06-04T03:26:00;10.00;99.90
4548;DHT22;2286;51.570;7.090;2023-06-04T03:28:27;10.00;99.90
4548;DHT22;2286;51.570;7.090;2023-06-04T03:30:54;10.00;99.90
4548;DHT22;2286;51.570;7.090;2023-06-04T03:33:21;10.00;99.90
4548;DHT22;2286;51.570;7.090;2023-06-04T03:35:49;9.90;99.90
4548;DHT22;2286;51.570;7.090;2023-06-04T03:38:18;9.90;99.90
4548;DHT22;2286;51.570;7.090;2023-06-04T03:40:45;9.90;99.90
4548;DHT22;2286;51.570;7.090;2023-06-04T03:43:13;9.90;99.90
4548;DHT22;2286;51.570;7.090;2023-06-04T03:45:40;9.90;1.00
4548;DHT22;2286;51.570;7.090;2023-06-04T03:48:07;9.90;1.00
4548;DHT22;2286;51.570;7.090;2023-06-04T03:50:35;9.90;1.00
4548;DHT22;2286;51.570;7.090;2023-06-04T03:53:03;9.80;1.00
4548;DHT22;2286;51.570;7.090;2023-06-04T03:55:31;9.80;1.00
4548;DHT22;2286;51.570;7.090;2023-06-04T03:57:58;9.80;1.00
4548;DHT22;2286;51.570;7.090;2023-06-04T04:00:26;9.80;1.00
4548;DHT22;2286;51.570;7.090;2023-06-04T04:02:53;9.70;1.00
4548;DHT22;2286;51.570;7.090;2023-06-04T04:05:21;9.70;1.00
4548;DHT22;2286;51.570;7.090;2023-06-04T04:07:48;9.70;1.00
4548;DHT22;2286;51.570;7.090;2023-06-04T04:10:17;9.70;1.00
4548;DHT22;2286;51.570;7.090;2023-06-04T04:12:44;9.70;1.00
4548;DHT22;2286;51.570;7.090;2023-06-04T04:15:11;9.80;27.60
4548;DHT22;2286;51.570;7.090;2023-06-04T04:17:38;9.90;1.00
4548;DHT22;2286;51.570;7.090;2023-06-04T04:20:06;9.90;1.00
4548;DHT22;2286;51.570;7.090;2023-06-04T04:22:33;9.90;1.00
4548;DHT22;2286;51.570;7.090;2023-06-04T04:25:00;9.90;1.00
4548;DHT22;2286;51.570;7.090;2023-06-04T04:27:30;10.00;1.00
4548;DHT22;2286;51.570;7.090;2023-06-04T04:29:57;10.00;1.00
4548;DHT22;2286;51.570;7.090;2023-06-04T04:32:25;10.00;1.00
4548;DHT22;2286;51.570;7.090;2023-06-04T04:34:53;10.00;1.00
4548;DHT22;2286;51.570;7.090;2023-06-04T04:37:21;10.10;1.00
4548;DHT22;2286;51.570;7.090;2023-06-04T04:39:48;10.10;1.00
4548;DHT22;2286;51.570;7.090;2023-06-04T04:42:17;10.20;1.00
4548;DHT22;2286;51.570;7.090;2023-06-04T04:44:45;10.20;1.00
4548;DHT22;2286;51.570;7.090;2023-06-04T04:47:14;10.20;1.00
4548;DHT22;2286;51.570;7.090;2023-06-04T04:49:41;10.30;1.00
4548;DHT22;2286;51.570;7.090;2023-06-04T04:52:08;10.40;1.00
4548;DHT22;2286;51.570;7.090;2023-06-04T04:54:35;10.50;1.00
4548;DHT22;2286;51.570;7.090;2023-06-04T04:57:03;10.60;99.90
4548;DHT22;2286;51.570;7.090;2023-06-04T04:59:30;10.70;99.90
4548;DHT22;2286;51.570;7.090;2023-06-04T05:01:58;10.90;99.90
4548;DHT22;2286;51.570;7.090;2023-06-04T05:04:25;10.90;99.90
4548;DHT22;2286;51.570;7.090;2023-06-04T05:06:52;10.90;99.90
4548;DHT22;2286;51.570;7.090;2023-06-04T05:09:19;11.00;99.90
4548;DHT22;2286;51.570;7.090;2023-06-04T05:11:47;11.10;99.90
4548;DHT22;2286;51.570;7.090;2023-06-04T05:14:13;11.20;99.90
4548;DHT22;2286;51.570;7.090;2023-06-04T05:16:41;11.30;99.90
4548;DHT22;2286;51.570;7.090;2023-06-04T05:19:11;11.40;99.90
4548;DHT22;2286;51.570;7.090;2023-06-04T05:21:38;11.50;99.90
4548;DHT22;2286;51.570;7.090;2023-06-04T05:24:05;11.50;19.80
4548;DHT22;2286;51.570;7.090;2023-06-04T05:26:32;11.60;18.20
4548;DHT22;2286;51.570;7.090;2023-06-04T05:28:59;11.70;38.10
4548;DHT22;2286;51.570;7.090;2023-06-04T05:31:26;11.80;1.00
4548;DHT22;2286;51.570;7.090;2023-06-04T05:33:53;12.00;1.00
4548;DHT22;2286;51.570;7.090;2023-06-04T05:36:22;12.00;1.00
4548;DHT22;2286;51.570;7.090;2023-06-04T05:38:49;12.10;1.00
4548;DHT22;2286;51.570;7.090;2023-06-04T05:41:22;12.20;1.00
4548;DHT22;2286;51.570;7.090;2023-06-04T05:43:49;12.40;1.00
4548;DHT22;2286;51.570;7.090;2023-06-04T05:46:16;12.60;1.00
4548;DHT22;2286;51.570;7.090;2023-06-04T05:48:44;12.70;1.00
4548;DHT22;2286;51.570;7.090;2023-06-04T05:51:13;12.80;99.90
4548;DHT22;2286;51.570;7.090;2023-06-04T05:53:41;12.90;99.90
4548;DHT22;2286;51.570;7.090;2023-06-04T05:56:08;13.00;99.90
4548;DHT22;2286;51.570;7.090;2023-06-04T05:58:36;13.10;99.90
4548;DHT22;2286;51.570;7.090;2023-06-04T06:01:03;13.10;99.90
4548;DHT22;2286;51.570;7.090;2023-06-04T06:03:30;13.20;99.90
4548;DHT22;2286;51.570;7.090;2023-06-04T06:05:57;13.30;99.90
4548;DHT22;2286;51.570;7.090;2023-06-04T06:08:26;13.40;99.90
4548;DHT22;2286;51.570;7.090;2023-06-04T06:10:54;13.50;99.90
4548;DHT22;2286;51.570;7.090;2023-06-04T06:13:21;13.50;99.90
4548;DHT22;2286;51.570;7.090;2023-06-04T06:15:48;13.60;99.90
4548;DHT22;2286;51.570;7.090;2023-06-04T06:18:16;13.70;99.90
4548;DHT22;2286;51.570;7.090;2023-06-04T06:20:43;13.80;99.90
4548;DHT22;2286;51.570;7.090;2023-06-04T06:23:10;13.80;99.90
4548;DHT22;2286;51.570;7.090;2023-06-04T06:25:38;13.90;99.90
4548;DHT22;2286;51.570;7.090;2023-06-04T06:28:07;14.00;99.90
4548;DHT22;2286;51.570;7.090;2023-06-04T06:30:34;14.00;99.90
4548;DHT22;2286;51.570;7.090;2023-06-04T06:33:01;14.10;99.90
4548;DHT22;2286;51.570;7.090;2023-06-04T06:35:28;14.20;99.90
4548;DHT22;2286;51.570;7.090;2023-06-04T06:37:55;14.30;99.90
4548;DHT22;2286;51.570;7.090;2023-06-04T06:40:22;14.30;99.90
4548;DHT22;2286;51.570;7.090;2023-06-04T06:42:49;14.40;99.90
4548;DHT22;2286;51.570;7.090;2023-06-04T06:45:19;14.50;99.90
4548;DHT22;2286;51.570;7.090;2023-06-04T06:47:46;14.60;99.90
4548;DHT22;2286;51.570;7.090;2023-06-04T06:50:13;14.60;99.90
4548;DHT22;2286;51.570;7.090;2023-06-04T06:52:40;14.70;99.90
4548;DHT22;2286;51.570;7.090;2023-06-04T06:55:07;14.80;99.90
4548;DHT22;2286;51.570;7.090;2023-06-04T06:57:34;14.80;99.90
4548;DHT22;2286;51.570;7.090;2023-06-04T07:00:02;14.80;99.90
4548;DHT22;2286;51.570;7.090;2023-06-04T07:02:32;14.90;99.90
4548;DHT22;2286;51.570;7.090;2023-06-04T07:04:59;15.00;99.90
4548;DHT22;2286;51.570;7.090;2023-06-04T07:07:27;15.10;99.90
4548;DHT22;2286;51.570;7.090;2023-06-04T07:09:54;15.20;99.90
4548;DHT22;2286;51.570;7.090;2023-06-04T07:12:21;15.20;99.90
4548;DHT22;2286;51.570;7.090;2023-06-04T07:14:49;15.30;99.90
4548;DHT22;2286;51.570;7.090;2023-06-04T07:17:16;15.40;99.90
4548;DHT22;2286;51.570;7.090;2023-06-04T07:19:44;15.60;99.90
4548;DHT22;2286;51.570;7.090;2023-06-04T07:22:11;15.70;99.90
4548;DHT22;2286;51.570;7.090;2023-06-04T07:24:41;15.80;99.90
4548;DHT22;2286;51.570;7.090;2023-06-04T07:27:10;15.90;99.90
4548;DHT22;2286;51.570;7.090;2023-06-04T07:29:38;15.90;99.90
4548;DHT22;2286;51.570;7.090;2023-06-04T07:32:05;16.10;99.90
4548;DHT22;2286;51.570;7.090;2023-06-04T07:34:32;16.20;99.90
4548;DHT22;2286;51.570;7.090;2023-06-04T07:37:00;16.30;99.90
4548;DHT22;2286;51.570;7.090;2023-06-04T07:39:27;16.40;99.90
4548;DHT22;2286;51.570;7.090;2023-06-04T07:41:54;16.50;99.90
4548;DHT22;2286;51.570;7.090;2023-06-04T07:44:21;16.60;99.90
4548;DHT22;2286;51.570;7.090;2023-06-04T07:46:49;16.70;99.90
4548;DHT22;2286;51.570;7.090;2023-06-04T07:49:16;16.80;99.90
4548;DHT22;2286;51.570;7.090;2023-06-04T07:51:43;16.90;99.90
4548;DHT22;2286;51.570;7.090;2023-06-04T07:54:11;17.00;99.90
4548;DHT22;2286;51.570;7.090;2023-06-04T07:56:40;17.10;99.90
4548;DHT22;2286;51.570;7.090;2023-06-04T07:59:07;17.20;99.90
4548;DHT22;2286;51.570;7.090;2023-06-04T08:01:34;17.30;99.90
4548;DHT22;2286;51.570;7.090;2023-06-04T08:04:01;17.50;99.90
4548;DHT22;2286;51.570;7.090;2023-06-04T08:06:28;17.70;99.90
4548;DHT22;2286;51.570;7.090;2023-06-04T08:08:55;17.70;99.90
4548;DHT22;2286;51.570;7.090;2023-06-04T08:11:24;17.80;99.90
4548;DHT22;2286;51.570;7.090;2023-06-04T08:13:51;17.90;99.90
4548;DHT22;2286;51.570;7.090;2023-06-04T08:16:18;18.00;99.70
4548;DHT22;2286;51.570;7.090;2023-06-04T08:18:45;18.30;98.60
4548;DHT22;2286;51.570;7.090;2023-06-04T08:21:12;18.40;98.30
4548;DHT22;2286;51.570;7.090;2023-06-04T08:23:42;18.50;97.30
4548;DHT22;2286;51.570;7.090;2023-06-04T08:26:09;18.60;94.80
4548;DHT22;2286;51.570;7.090;2023-06-04T08:28:38;18.70;94.60
4548;DHT22;2286;51.570;7.090;2023-06-04T08:31:05;18.80;93.40
4548;DHT22;2286;51.570;7.090;2023-06-04T08:33:32;18.90;92.70
4548;DHT22;2286;51.570;7.090;2023-06-04T08:35:59;19.00;92.80
4548;DHT22;2286;51.570;7.090;2023-06-04T08:38:26;19.20;91.50
4548;DHT22;2286;51.570;7.090;2023-06-04T08:40:58;19.20;91.10
4548;DHT22;2286;51.570;7.090;2023-06-04T08:43:29;19.40;91.10
4548;DHT22;2286;51.570;7.090;2023-06-04T08:45:59;19.60;91.00
4548;DHT22;2286;51.570;7.090;2023-06-04T08:48:28;19.70;91.90
4548;DHT22;2286;51.570;7.090;2023-06-04T08:50:57;19.90;90.60
4548;DHT22;2286;51.570;7.090;2023-06-04T08:53:26;20.00;87.60
4548;DHT22;2286;51.570;7.090;2023-06-04T08:55:53;20.10;86.40
4548;DHT22;2286;51.570;7.090;2023-06-04T08:58:21;20.10;85.00
4548;DHT22;2286;51.570;7.090;2023-06-04T09:00:49;20.30;83.30
4548;DHT22;2286;51.570;7.090;2023-06-04T09:03:17;20.30;82.90
4548;DHT22;2286;51.570;7.090;2023-06-04T09:05:47;20.50;80.00
4548;DHT22;2286;51.570;7.090;2023-06-04T09:08:17;20.50;79.70
4548;DHT22;2286;51.570;7.090;2023-06-04T09:10:45;20.70;81.30
4548;DHT22;2286;51.570;7.090;2023-06-04T09:13:15;20.90;80.00
4548;DHT22;2286;51.570;7.090;2023-06-04T09:15:44;21.00;79.10
4548;DHT22;2286;51.570;7.090;2023-06-04T09:18:11;21.10;76.40
4548;DHT22;2286;51.570;7.090;2023-06-04T09:20:40;21.20;76.30
4548;DHT22;2286;51.570;7.090;2023-06-04T09:23:13;21.30;75.70
4548;DHT22;2286;51.570;7.090;2023-06-04T09:25:42;21.50;73.10
4548;DHT22;2286;51.570;7.090;2023-06-04T09:28:10;21.70;73.80
4548;DHT22;2286;51.570;7.090;2023-06-04T09:30:37;21.80;72.90
4548;DHT22;2286;51.570;7.090;2023-06-04T09:33:07;22.00;92.10
4548;DHT22;2286;51.570;7.090;2023-06-04T09:35:35;22.10;70.80
4548;DHT22;2286;51.570;7.090;2023-06-04T09:38:05;22.10;69.30
4548;DHT22;2286;51.570;7.090;2023-06-04T09:40:36;22.00;69.30
4548;DHT22;2286;51.570;7.090;2023-06-04T09:43:03;22.20;68.00
4548;DHT22;2286;51.570;7.090;2023-06-04T09:45:32;22.30;67.70
4548;DHT22;2286;51.570;7.090;2023-06-04T09:48:02;22.60;68.20
4548;DHT22;2286;51.570;7.090;2023-06-04T09:50:31;22.70;67.70
4548;DHT22;2286;51.570;7.090;2023-06-04T09:52:59;22.90;67.40
4548;DHT22;2286;51.570;7.090;2023-06-04T09:55:29;23.10;68.10
4548;DHT22;2286;51.570;7.090;2023-06-04T09:57:58;23.40;68.10
4548;DHT22;2286;51.570;7.090;2023-06-04T10:00:26;23.60;70.30
4548;DHT22;2286;51.570;7.090;2023-06-04T10:03:00;23.60;67.60
4548;DHT22;2286;51.570;7.090;2023-06-04T10:05:29;23.80;68.20
4548;DHT22;2286;51.570;7.090;2023-06-04T10:08:00;23.90;70.00
4548;DHT22;2286;51.570;7.090;2023-06-04T10:10:35;24.20;69.00
4548;DHT22;2286;51.570;7.090;2023-06-04T10:13:05;24.50;70.50
4548;DHT22;2286;51.570;7.090;2023-06-04T10:15:35;24.70;69.90
4548;DHT22;2286;51.570;7.090;2023-06-04T10:18:03;24.90;70.20
4548;DHT22;2286;51.570;7.090;2023-06-04T10:20:31;25.10;70.00
4548;DHT22;2286;51.570;7.090;2023-06-04T10:22:58;25.20;69.30
4548;DHT22;2286;51.570;7.090;2023-06-04T10:25:28;25.60;71.40
4548;DHT22;2286;51.570;7.090;2023-06-04T10:27:57;26.10;72.70
4548;DHT22;2286;51.570;7.090;2023-06-04T10:30:24;26.20;72.30
4548;DHT22;2286;51.570;7.090;2023-06-04T10:32:52;26.50;73.60
4548;DHT22;2286;51.570;7.090;2023-06-04T10:35:29;26.90;73.60
4548;DHT22;2286;51.570;7.090;2023-06-04T10:38:07;27.30;74.50
4548;DHT22;2286;51.570;7.090;2023-06-04T10:40:35;28.00;76.90
4548;DHT22;2286;51.570;7.090;2023-06-04T10:43:07;28.70;80.50
4548;DHT22;2286;51.570;7.090;2023-06-04T10:45:35;29.20;81.40
4548;DHT22;2286;51.570;7.090;2023-06-04T10:48:04;29.90;83.20
4548;DHT22;2286;51.570;7.090;2023-06-04T10:50:32;30.20;85.90
4548;DHT22;2286;51.570;7.090;2023-06-04T10:52:59;30.50;85.20
4548;DHT22;2286;51.570;7.090;2023-06-04T10:55:30;30.80;85.70
4548;DHT22;2286;51.570;7.090;2023-06-04T10:57:58;31.20;89.00
4548;DHT22;2286;51.570;7.090;2023-06-04T11:00:37;31.50;88.30
4548;DHT22;2286;51.570;7.090;2023-06-04T11:03:05;32.10;91.30
4548;DHT22;2286;51.570;7.090;2023-06-04T11:05:34;32.70;92.20
4548;DHT22;2286;51.570;7.090;2023-06-04T11:08:01;32.50;91.30
4548;DHT22;2286;51.570;7.090;2023-06-04T11:10:32;32.70;91.90
4548;DHT22;2286;51.570;7.090;2023-06-04T11:13:00;32.80;91.30
4548;DHT22;2286;51.570;7.090;2023-06-04T11:15:39;33.10;91.50
4548;DHT22;2286;51.570;7.090;2023-06-04T11:18:06;33.50;92.40
4548;DHT22;2286;51.570;7.090;2023-06-04T11:20:33;34.40;94.40
4548;DHT22;2286;51.570;7.090;2023-06-04T11:23:00;34.60;94.20
4548;DHT22;2286;51.570;7.090;2023-06-04T11:25:29;34.10;92.90
4548;DHT22;2286;51.570;7.090;2023-06-04T11:27:58;34.80;94.70
4548;DHT22;2286;51.570;7.090;2023-06-04T11:30:27;34.80;93.90
4548;DHT22;2286;51.570;7.090;2023-06-04T11:33:03;34.20;91.10
4548;DHT22;2286;51.570;7.090;2023-06-04T11:35:31;34.10;91.30
4548;DHT22;2286;51.570;7.090;2023-06-04T11:37:58;34.30;91.20
4548;DHT22;2286;51.570;7.090;2023-06-04T11:40:26;34.70;92.20
4548;DHT22;2286;51.570;7.090;2023-06-04T11:42:53;35.10;92.60
4548;DHT22;2286;51.570;7.090;2023-06-04T11:45:22;35.80;94.00
4548;DHT22;2286;51.570;7.090;2023-06-04T11:47:51;35.50;92.90
4548;DHT22;2286;51.570;7.090;2023-06-04T11:50:20;35.80;93.70
4548;DHT22;2286;51.570;7.090;2023-06-04T11:52:48;35.80;92.80
4548;DHT22;2286;51.570;7.090;2023-06-04T11:55:15;36.20;93.20
4548;DHT22;2286;51.570;7.090;2023-06-04T11:57:46;36.80;99.90
4548;DHT22;2286;51.570;7.090;2023-06-04T12:00:15;36.70;99.90
4548;DHT22;2286;51.570;7.090;2023-06-04T12:02:49;37.10;94.40
4548;DHT22;2286;51.570;7.090;2023-06-04T12:05:17;37.40;95.50
4548;DHT22;2286;51.570;7.090;2023-06-04T12:07:47;37.50;95.90
4548;DHT22;2286;51.570;7.090;2023-06-04T12:10:16;37.70;95.60
4548;DHT22;2286;51.570;7.090;2023-06-04T12:12:43;37.40;94.00
4548;DHT22;2286;51.570;7.090;2023-06-04T12:15:10;37.40;93.70
4548;DHT22;2286;51.570;7.090;2023-06-04T12:17:37;37.60;94.10
4548;DHT22;2286;51.570;7.090;2023-06-04T12:20:15;38.10;95.10
4548;DHT22;2286;51.570;7.090;2023-06-04T12:22:47;38.50;95.60
4548;DHT22;2286;51.570;7.090;2023-06-04T12:25:24;37.60;93.60
4548;DHT22;2286;51.570;7.090;2023-06-04T12:27:52;38.40;95.10
4548;DHT22;2286;51.570;7.090;2023-06-04T12:30:19;38.60;95.40
4548;DHT22;2286;51.570;7.090;2023-06-04T12:32:46;38.80;96.00
4548;DHT22;2286;51.570;7.090;2023-06-04T12:35:13;39.80;98.50
4548;DHT22;2286;51.570;7.090;2023-06-04T12:37:41;39.00;95.40
4548;DHT22;2286;51.570;7.090;2023-06-04T12:40:11;38.90;95.00
4548;DHT22;2286;51.570;7.090;2023-06-04T12:42:39;39.00;95.10
4548;DHT22;2286;51.570;7.090;2023-06-04T12:45:07;38.80;94.10
4548;DHT22;2286;51.570;7.090;2023-06-04T12:47:34;38.40;92.50
4548;DHT22;2286;51.570;7.090;2023-06-04T12:50:01;39.10;95.40
4548;DHT22;2286;51.570;7.090;2023-06-04T12:52:28;38.10;90.80
4548;DHT22;2286;51.570;7.090;2023-06-04T12:54:55;37.50;88.40
4548;DHT22;2286;51.570;7.090;2023-06-04T12:57:24;37.50;87.30
4548;DHT22;2286;51.570;7.090;2023-06-04T12:59:51;38.50;92.40
4548;DHT22;2286;51.570;7.090;2023-06-04T13:02:18;38.90;93.60
4548;DHT22;2286;51.570;7.090;2023-06-04T13:04:45;39.80;95.50
4548;DHT22;2286;51.570;7.090;2023-06-04T13:07:12;39.90;95.00
4548;DHT22;2286;51.570;7.090;2023-06-04T13:09:39;39.90;95.80
4548;DHT22;2286;51.570;7.090;2023-06-04T13:12:06;40.60;96.90
4548;DHT22;2286;51.570;7.090;2023-06-04T13:14:36;40.50;96.50
4548;DHT22;2286;51.570;7.090;2023-06-04T13:17:03;41.10;97.70
4548;DHT22;2286;51.570;7.090;2023-06-04T13:19:30;40.60;94.90
4548;DHT22;2286;51.570;7.090;2023-06-04T13:21:57;40.60;96.00
4548;DHT22;2286;51.570;7.090;2023-06-04T13:24:24;41.20;97.70
4548;DHT22;2286;51.570;7.090;2023-06-04T13:26:51;41.70;98.20
4548;DHT22;2286;51.570;7.090;2023-06-04T13:29:18;41.70;97.90
4548;DHT22;2286;51.570;7.090;2023-06-04T13:31:49;41.30;96.90
4548;DHT22;2286;51.570;7.090;2023-06-04T13:34:18;41.00;95.70
4548;DHT22;2286;51.570;7.090;2023-06-04T13:36:45;41.10;96.00
4548;DHT22;2286;51.570;7.090;2023-06-04T13:39:12;40.80;94.30
4548;DHT22;2286;51.570;7.090;2023-06-04T13:41:39;40.60;94.10
4548;DHT22;2286;51.570;7.090;2023-06-04T13:44:06;40.30;92.90
4548;DHT22;2286;51.570;7.090;2023-06-04T13:46:34;41.10;95.10
4548;DHT22;2286;51.570;7.090;2023-06-04T13:49:02;41.10;95.60
4548;DHT22;2286;51.570;7.090;2023-06-04T13:51:31;40.90;95.10
4548;DHT22;2286;51.570;7.090;2023-06-04T13:53:58;41.30;95.00
4548;DHT22;2286;51.570;7.090;2023-06-04T13:56:25;41.60;96.70
4548;DHT22;2286;51.570;7.090;2023-06-04T13:58:52;41.40;96.00
4548;DHT22;2286;51.570;7.090;2023-06-04T14:01:19;41.00;93.50
4548;DHT22;2286;51.570;7.090;2023-06-04T14:03:46;40.80;93.10
4548;DHT22;2286;51.570;7.090;2023-06-04T14:06:14;39.70;89.00
4548;DHT22;2286;51.570;7.090;2023-06-04T14:08:41;40.50;92.30
4548;DHT22;2286;51.570;7.090;2023-06-04T14:11:08;40.70;92.50
4548;DHT22;2286;51.570;7.090;2023-06-04T14:13:37;41.40;95.70
4548;DHT22;2286;51.570;7.090;2023-06-04T14:16:04;41.70;95.10
4548;DHT22;2286;51.570;7.090;2023-06-04T14:18:31;41.70;95.20
4548;DHT22;2286;51.570;7.090;2023-06-04T14:20:58;41.80;94.90
4548;DHT22;2286;51.570;7.090;2023-06-04T14:23:27;41.60;94.50
4548;DHT22;2286;51.570;7.090;2023-06-04T14:25:54;42.00;96.30
4548;DHT22;2286;51.570;7.090;2023-06-04T14:28:21;42.00;97.50
4548;DHT22;2286;51.570;7.090;2023-06-04T14:30:48;41.80;94.80
4548;DHT22;2286;51.570;7.090;2023-06-04T14:33:16;41.10;92.70
4548;DHT22;2286;51.570;7.090;2023-06-04T14:35:43;40.80;91.90
4548;DHT22;2286;51.570;7.090;2023-06-04T14:38:12;41.30;93.50
4548;DHT22;2286;51.570;7.090;2023-06-04T14:40:41;42.00;94.80
4548;DHT22;2286;51.570;7.090;2023-06-04T14:43:10;41.70;93.70
4548;DHT22;2286;51.570;7.090;2023-06-04T14:45:37;41.80;93.50
4548;DHT22;2286;51.570;7.090;2023-06-04T14:48:05;41.90;94.10
4548;DHT22;2286;51.570;7.090;2023-06-04T14:50:32;42.20;95.50
4548;DHT22;2286;51.570;7.090;2023-06-04T14:52:59;42.30;94.60
4548;DHT22;2286;51.570;7.090;2023-06-04T14:55:26;42.60;95.90
4548;DHT22;2286;51.570;7.090;2023-06-04T14:57:55;43.00;96.20
4548;DHT22;2286;51.570;7.090;2023-06-04T15:00:22;42.60;94.20
4548;DHT22;2286;51.570;7.090;2023-06-04T15:02:49;42.60;95.10
4548;DHT22;2286;51.570;7.090;2023-06-04T15:05:16;42.30;93.40
4548;DHT22;2286;51.570;7.090;2023-06-04T15:07:43;42.60;95.00
4548;DHT22;2286;51.570;7.090;2023-06-04T15:10:10;42.40;93.70
4548;DHT22;2286;51.570;7.090;2023-06-04T15:12:37;42.00;93.00
4548;DHT22;2286;51.570;7.090;2023-06-04T15:15:07;41.70;92.20
4548;DHT22;2286;51.570;7.090;2023-06-04T15:17:34;42.00;92.40
4548;DHT22;2286;51.570;7.090;2023-06-04T15:20:02;42.00;92.90
4548;DHT22;2286;51.570;7.090;2023-06-04T15:22:29;42.50;94.20
4548;DHT22;2286;51.570;7.090;2023-06-04T15:24:56;42.70;99.90
4548;DHT22;2286;51.570;7.090;2023-06-04T15:27:23;42.80;94.40
4548;DHT22;2286;51.570;7.090;2023-06-04T15:29:50;42.40;92.50
4548;DHT22;2286;51.570;7.090;2023-06-04T15:32:19;42.80;94.20
4548;DHT22;2286;51.570;7.090;2023-06-04T15:34:49;42.90;94.00
4548;DHT22;2286;51.570;7.090;2023-06-04T15:37:16;42.90;94.00
4548;DHT22;2286;51.570;7.090;2023-06-04T15:39:43;43.00;95.00
4548;DHT22;2286;51.570;7.090;2023-06-04T15:42:10;43.00;94.60
4548;DHT22;2286;51.570;7.090;2023-06-04T15:44:37;43.20;93.40
4548;DHT22;2286;51.570;7.090;2023-06-04T15:47:04;42.30;91.70
4548;DHT22;2286;51.570;7.090;2023-06-04T15:49:33;41.40;89.80
4548;DHT22;2286;51.570;7.090;2023-06-04T15:52:00;41.40;88.00
4548;DHT22;2286;51.570;7.090;2023-06-04T15:54:27;41.50;89.80
4548;DHT22;2286;51.570;7.090;2023-06-04T15:56:54;41.90;91.80
4548;DHT22;2286;51.570;7.090;2023-06-04T15:59:21;41.90;90.60
4548;DHT22;2286;51.570;7.090;2023-06-04T16:01:48;42.50;92.60
4548;DHT22;2286;51.570;7.090;2023-06-04T16:04:16;42.30;92.30
4548;DHT22;2286;51.570;7.090;2023-06-04T16:06:44;42.50;91.90
4548;DHT22;2286;51.570;7.090;2023-06-04T16:09:11;41.70;87.10